sensor_id;sensor_type;location;lat;lon;timestamp;P1;durP1;ratioP1;P2;durP2;ratioP2
17604;SDS011;8921;50.964;6.800;2023-03-11T00:02:25;9.13;;;2.93;;
17604;SDS011;8921;50.964;6.800;2023-03-11T00:04:53;14.70;;;3.57;;
17604;SDS011;8921;50.964;6.800;2023-03-11T00:07:22;10.00;;;3.80;;
17604;SDS011;8921;50.964;6.800;2023-03-11T00:09:50;9.43;;;3.47;;
17604;SDS011;8921;50.964;6.800;2023-03-11T00:12:18;14.93;;;4.07;;
17604;SDS011;8921;50.964;6.800;2023-03-11T00:14:46;12.03;;;2.70;;
17604;SDS011;8921;50.964;6.800;2023-03-11T00:17:15;8.77;;;3.20;;
17604;SDS011;8921;50.964;6.800;2023-03-11T00:19:43;9.77;;;2.83;;
17604;SDS011;8921;50.964;6.800;2023-03-11T00:22:11;10.03;;;3.20;;
17604;SDS011;8921;50.964;6.800;2023-03-11T00:24:40;8.90;;;2.80;;
17604;SDS011;8921;50.964;6.800;2023-03-11T00:27:08;8.57;;;2.70;;
17604;SDS011;8921;50.964;6.800;2023-03-11T00:29:36;7.77;;;2.90;;
17604;SDS011;8921;50.964;6.800;2023-03-11T00:32:04;7.43;;;2.80;;
17604;SDS011;8921;50.964;6.800;2023-03-11T00:34:33;9.13;;;2.90;;
17604;SDS011;8921;50.964;6.800;2023-03-11T00:37:01;11.53;;;3.33;;
17604;SDS011;8921;50.964;6.800;2023-03-11T00:39:29;5.83;;;2.57;;
17604;SDS011;8921;50.964;6.800;2023-03-11T00:41:58;10.17;;;3.37;;
17604;SDS011;8921;50.964;6.800;2023-03-11T00:44:26;6.60;;;2.53;;
17604;SDS011;8921;50.964;6.800;2023-03-11T00:46:54;8.33;;;2.80;;
17604;SDS011;8921;50.964;6.800;2023-03-11T00:49:22;12.13;;;3.10;;
17604;SDS011;8921;50.964;6.800;2023-03-11T00:51:51;6.20;;;2.30;;
17604;SDS011;8921;50.964;6.800;2023-03-11T00:54:19;15.33;;;3.80;;
17604;SDS011;8921;50.964;6.800;2023-03-11T00:56:47;8.07;;;3.20;;
17604;SDS011;8921;50.964;6.800;2023-03-11T00:59:15;11.87;;;3.00;;
17604;SDS011;8921;50.964;6.800;2023-03-11T01:01:44;12.13;;;3.03;;
17604;SDS011;8921;50.964;6.800;2023-03-11T01:04:12;6.90;;;2.20;;
17604;SDS011;8921;50.964;6.800;2023-03-11T01:06:40;6.90;;;2.30;;
17604;SDS011;8921;50.964;6.800;2023-03-11T01:09:09;10.93;;;3.03;;
17604;SDS011;8921;50.964;6.800;2023-03-11T01:11:37;9.20;;;2.93;;
17604;SDS011;8921;50.964;6.800;2023-03-11T01:14:05;7.43;;;2.40;;
17604;SDS011;8921;50.964;6.800;2023-03-11T01:16:33;9.60;;;3.00;;
17604;SDS011;8921;50.964;6.800;2023-03-11T01:19:02;14.10;;;2.93;;
17604;SDS011;8921;50.964;6.800;2023-03-11T01:21:30;6.67;;;2.70;;
17604;SDS011;8921;50.964;6.800;2023-03-11T01:23:58;6.00;;;2.50;;
17604;SDS011;8921;50.964;6.800;2023-03-11T01:26:27;8.43;;;3.70;;
17604;SDS011;8921;50.964;6.800;2023-03-11T01:28:55;9.27;;;2.30;;
17604;SDS011;8921;50.964;6.800;2023-03-11T01:31:23;7.43;;;3.43;;
17604;SDS011;8921;50.964;6.800;2023-03-11T01:33:51;12.77;;;3.23;;
17604;SDS011;8921;50.964;6.800;2023-03-11T01:36:20;11.23;;;3.37;;
17604;SDS011;8921;50.964;6.800;2023-03-11T01:38:48;7.53;;;3.03;;
17604;SDS011;8921;50.964;6.800;2023-03-11T01:41:16;7.13;;;3.00;;
17604;SDS011;8921;50.964;6.800;2023-03-11T01:46:20;15.67;;;4.00;;
17604;SDS011;8921;50.964;6.800;2023-03-11T01:48:53;10.23;;;3.27;;
17604;SDS011;8921;50.964;6.800;2023-03-11T01:51:27;10.63;;;3.70;;
17604;SDS011;8921;50.964;6.800;2023-03-11T01:53:50;10.37;;;2.57;;
17604;SDS011;8921;50.964;6.800;2023-03-11T01:56:18;9.70;;;3.13;;
17604;SDS011;8921;50.964;6.800;2023-03-11T01:58:46;16.07;;;3.13;;
17604;SDS011;8921;50.964;6.800;2023-03-11T02:01:14;8.50;;;3.03;;
17604;SDS011;8921;50.964;6.800;2023-03-11T02:03:43;9.40;;;2.83;;
17604;SDS011;8921;50.964;6.800;2023-03-11T02:06:13;11.10;;;2.90;;
17604;SDS011;8921;50.964;6.800;2023-03-11T02:08:39;10.63;;;2.53;;
17604;SDS011;8921;50.964;6.800;2023-03-11T02:11:08;13.67;;;3.27;;
17604;SDS011;8921;50.964;6.800;2023-03-11T02:13:36;8.00;;;3.00;;
17604;SDS011;8921;50.964;6.800;2023-03-11T02:16:04;7.83;;;2.60;;
17604;SDS011;8921;50.964;6.800;2023-03-11T02:18:32;5.10;;;2.27;;
17604;SDS011;8921;50.964;6.800;2023-03-11T02:21:19;9.40;;;3.10;;
17604;SDS011;8921;50.964;6.800;2023-03-11T02:26:55;9.23;;;2.63;;
17604;SDS011;8921;50.964;6.800;2023-03-11T02:29:23;7.90;;;2.70;;
17604;SDS011;8921;50.964;6.800;2023-03-11T02:31:51;8.80;;;2.40;;
17604;SDS011;8921;50.964;6.800;2023-03-11T02:34:27;14.40;;;3.33;;
17604;SDS011;8921;50.964;6.800;2023-03-11T02:36:57;12.10;;;3.27;;
17604;SDS011;8921;50.964;6.800;2023-03-11T02:39:32;11.97;;;2.50;;
17604;SDS011;8921;50.964;6.800;2023-03-11T02:42:06;9.97;;;3.40;;
17604;SDS011;8921;50.964;6.800;2023-03-11T02:44:32;7.20;;;2.57;;
17604;SDS011;8921;50.964;6.800;2023-03-11T02:47:01;10.47;;;2.87;;
17604;SDS011;8921;50.964;6.800;2023-03-11T02:49:29;6.80;;;3.13;;
17604;SDS011;8921;50.964;6.800;2023-03-11T02:51:57;9.87;;;3.27;;
17604;SDS011;8921;50.964;6.800;2023-03-11T02:54:26;8.33;;;2.73;;
17604;SDS011;8921;50.964;6.800;2023-03-11T02:56:54;8.63;;;3.80;;
17604;SDS011;8921;50.964;6.800;2023-03-11T02:59:22;16.80;;;3.57;;
17604;SDS011;8921;50.964;6.800;2023-03-11T03:01:50;7.17;;;3.10;;
17604;SDS011;8921;50.964;6.800;2023-03-11T03:04:19;8.93;;;2.80;;
17604;SDS011;8921;50.964;6.800;2023-03-11T03:06:47;7.93;;;2.80;;
17604;SDS011;8921;50.964;6.800;2023-03-11T03:09:15;9.33;;;3.20;;
17604;SDS011;8921;50.964;6.800;2023-03-11T03:11:43;7.70;;;2.67;;
17604;SDS011;8921;50.964;6.800;2023-03-11T03:14:12;6.50;;;2.37;;
17604;SDS011;8921;50.964;6.800;2023-03-11T03:16:40;10.83;;;2.60;;
17604;SDS011;8921;50.964;6.800;2023-03-11T03:19:08;8.40;;;2.73;;
17604;SDS011;8921;50.964;6.800;2023-03-11T03:21:37;9.80;;;2.50;;
17604;SDS011;8921;50.964;6.800;2023-03-11T03:24:05;6.63;;;2.53;;
17604;SDS011;8921;50.964;6.800;2023-03-11T03:26:34;9.00;;;2.30;;
17604;SDS011;8921;50.964;6.800;2023-03-11T03:29:02;11.17;;;2.80;;
17604;SDS011;8921;50.964;6.800;2023-03-11T03:31:30;7.73;;;2.63;;
17604;SDS011;8921;50.964;6.800;2023-03-11T03:33:58;10.50;;;3.10;;
17604;SDS011;8921;50.964;6.800;2023-03-11T03:36:26;9.77;;;2.73;;
17604;SDS011;8921;50.964;6.800;2023-03-11T03:38:55;9.53;;;4.27;;
17604;SDS011;8921;50.964;6.800;2023-03-11T03:41:23;8.70;;;2.87;;
17604;SDS011;8921;50.964;6.800;2023-03-11T03:43:51;8.20;;;2.03;;
17604;SDS011;8921;50.964;6.800;2023-03-11T03:46:20;6.13;;;2.20;;
17604;SDS011;8921;50.964;6.800;2023-03-11T03:48:48;5.00;;;2.17;;
17604;SDS011;8921;50.964;6.800;2023-03-11T03:51:16;12.43;;;2.33;;
17604;SDS011;8921;50.964;6.800;2023-03-11T03:53:44;12.10;;;2.70;;
17604;SDS011;8921;50.964;6.800;2023-03-11T03:56:14;9.87;;;2.67;;
17604;SDS011;8921;50.964;6.800;2023-03-11T03:58:41;11.50;;;2.20;;
17604;SDS011;8921;50.964;6.800;2023-03-11T04:01:10;6.30;;;2.40;;
17604;SDS011;8921;50.964;6.800;2023-03-11T04:03:37;12.03;;;2.57;;
17604;SDS011;8921;50.964;6.800;2023-03-11T04:08:46;8.57;;;2.10;;
17604;SDS011;8921;50.964;6.800;2023-03-11T04:11:14;19.80;;;2.40;;
17604;SDS011;8921;50.964;6.800;2023-03-11T04:13:42;9.40;;;3.43;;
17604;SDS011;8921;50.964;6.800;2023-03-11T04:16:13;10.63;;;2.53;;
17604;SDS011;8921;50.964;6.800;2023-03-11T04:18:45;6.93;;;2.77;;
17604;SDS011;8921;50.964;6.800;2023-03-11T04:21:13;11.90;;;2.57;;
17604;SDS011;8921;50.964;6.800;2023-03-11T04:23:42;11.03;;;3.03;;
17604;SDS011;8921;50.964;6.800;2023-03-11T04:26:10;7.27;;;2.90;;
17604;SDS011;8921;50.964;6.800;2023-03-11T04:28:38;13.43;;;3.00;;
17604;SDS011;8921;50.964;6.800;2023-03-11T04:31:07;10.97;;;3.30;;
17604;SDS011;8921;50.964;6.800;2023-03-11T04:33:35;9.67;;;2.70;;
17604;SDS011;8921;50.964;6.800;2023-03-11T04:36:04;7.13;;;2.90;;
17604;SDS011;8921;50.964;6.800;2023-03-11T04:38:31;9.53;;;2.70;;
17604;SDS011;8921;50.964;6.800;2023-03-11T04:41:03;5.83;;;2.63;;
17604;SDS011;8921;50.964;6.800;2023-03-11T04:43:31;9.63;;;4.57;;
17604;SDS011;8921;50.964;6.800;2023-03-11T04:45:59;6.57;;;2.70;;
17604;SDS011;8921;50.964;6.800;2023-03-11T04:48:27;6.23;;;3.00;;
17604;SDS011;8921;50.964;6.800;2023-03-11T04:50:55;11.03;;;2.87;;
17604;SDS011;8921;50.964;6.800;2023-03-11T04:53:24;9.80;;;4.87;;
17604;SDS011;8921;50.964;6.800;2023-03-11T04:55:52;14.47;;;2.90;;
17604;SDS011;8921;50.964;6.800;2023-03-11T04:58:20;10.67;;;2.77;;
17604;SDS011;8921;50.964;6.800;2023-03-11T05:00:49;10.50;;;3.23;;
17604;SDS011;8921;50.964;6.800;2023-03-11T05:03:17;6.73;;;2.80;;
17604;SDS011;8921;50.964;6.800;2023-03-11T05:05:45;9.20;;;2.70;;
17604;SDS011;8921;50.964;6.800;2023-03-11T05:08:13;13.90;;;3.70;;
17604;SDS011;8921;50.964;6.800;2023-03-11T05:10:42;8.50;;;2.90;;
17604;SDS011;8921;50.964;6.800;2023-03-11T05:13:10;8.83;;;2.80;;
17604;SDS011;8921;50.964;6.800;2023-03-11T05:15:38;9.33;;;3.73;;
17604;SDS011;8921;50.964;6.800;2023-03-11T05:18:06;7.80;;;2.90;;
17604;SDS011;8921;50.964;6.800;2023-03-11T05:20:35;7.93;;;3.70;;
17604;SDS011;8921;50.964;6.800;2023-03-11T05:23:03;6.70;;;3.60;;
17604;SDS011;8921;50.964;6.800;2023-03-11T05:25:31;10.33;;;2.67;;
17604;SDS011;8921;50.964;6.800;2023-03-11T05:28:00;10.30;;;3.60;;
17604;SDS011;8921;50.964;6.800;2023-03-11T05:30:28;11.90;;;4.40;;
17604;SDS011;8921;50.964;6.800;2023-03-11T05:32:56;12.03;;;5.10;;
17604;SDS011;8921;50.964;6.800;2023-03-11T05:35:24;10.20;;;2.60;;
17604;SDS011;8921;50.964;6.800;2023-03-11T05:37:53;9.17;;;3.37;;
17604;SDS011;8921;50.964;6.800;2023-03-11T05:40:21;14.80;;;3.90;;
17604;SDS011;8921;50.964;6.800;2023-03-11T05:42:49;11.00;;;3.03;;
17604;SDS011;8921;50.964;6.800;2023-03-11T05:45:18;8.03;;;2.87;;
17604;SDS011;8921;50.964;6.800;2023-03-11T05:47:46;7.83;;;4.20;;
17604;SDS011;8921;50.964;6.800;2023-03-11T05:50:14;12.00;;;3.67;;
17604;SDS011;8921;50.964;6.800;2023-03-11T05:52:42;15.00;;;3.57;;
17604;SDS011;8921;50.964;6.800;2023-03-11T05:55:11;6.80;;;3.23;;
17604;SDS011;8921;50.964;6.800;2023-03-11T05:57:39;12.87;;;4.23;;
17604;SDS011;8921;50.964;6.800;2023-03-11T06:00:08;13.03;;;3.50;;
17604;SDS011;8921;50.964;6.800;2023-03-11T06:02:39;8.53;;;3.87;;
17604;SDS011;8921;50.964;6.800;2023-03-11T06:05:07;11.27;;;5.17;;
17604;SDS011;8921;50.964;6.800;2023-03-11T06:07:35;6.60;;;2.83;;
17604;SDS011;8921;50.964;6.800;2023-03-11T06:10:04;7.90;;;2.97;;
17604;SDS011;8921;50.964;6.800;2023-03-11T06:12:32;12.60;;;4.10;;
17604;SDS011;8921;50.964;6.800;2023-03-11T06:15:00;11.93;;;3.87;;
17604;SDS011;8921;50.964;6.800;2023-03-11T06:17:29;12.10;;;3.57;;
17604;SDS011;8921;50.964;6.800;2023-03-11T06:19:57;8.93;;;3.37;;
17604;SDS011;8921;50.964;6.800;2023-03-11T06:22:25;11.43;;;3.47;;
17604;SDS011;8921;50.964;6.800;2023-03-11T06:24:53;13.33;;;4.50;;
17604;SDS011;8921;50.964;6.800;2023-03-11T06:27:22;10.67;;;4.40;;
17604;SDS011;8921;50.964;6.800;2023-03-11T06:29:51;7.80;;;3.20;;
17604;SDS011;8921;50.964;6.800;2023-03-11T06:32:18;9.30;;;3.67;;
17604;SDS011;8921;50.964;6.800;2023-03-11T06:34:53;9.10;;;3.70;;
17604;SDS011;8921;50.964;6.800;2023-03-11T06:37:21;15.17;;;8.03;;
17604;SDS011;8921;50.964;6.800;2023-03-11T06:39:52;15.80;;;6.20;;
17604;SDS011;8921;50.964;6.800;2023-03-11T06:42:20;11.07;;;3.40;;
17604;SDS011;8921;50.964;6.800;2023-03-11T06:44:51;9.90;;;3.37;;
17604;SDS011;8921;50.964;6.800;2023-03-11T06:47:19;9.53;;;4.50;;
17604;SDS011;8921;50.964;6.800;2023-03-11T06:49:49;14.33;;;3.90;;
17604;SDS011;8921;50.964;6.800;2023-03-11T06:52:16;9.00;;;3.77;;
17604;SDS011;8921;50.964;6.800;2023-03-11T06:54:45;11.47;;;4.03;;
17604;SDS011;8921;50.964;6.800;2023-03-11T06:57:13;10.03;;;3.90;;
17604;SDS011;8921;50.964;6.800;2023-03-11T06:59:41;11.30;;;3.80;;
17604;SDS011;8921;50.964;6.800;2023-03-11T07:02:10;10.33;;;4.90;;
17604;SDS011;8921;50.964;6.800;2023-03-11T07:04:37;7.47;;;2.70;;
17604;SDS011;8921;50.964;6.800;2023-03-11T07:07:06;9.77;;;4.13;;
17604;SDS011;8921;50.964;6.800;2023-03-11T07:09:34;9.30;;;4.10;;
17604;SDS011;8921;50.964;6.800;2023-03-11T07:12:02;10.63;;;3.53;;
17604;SDS011;8921;50.964;6.800;2023-03-11T07:14:31;8.23;;;4.20;;
17604;SDS011;8921;50.964;6.800;2023-03-11T07:16:59;8.73;;;3.30;;
17604;SDS011;8921;50.964;6.800;2023-03-11T07:19:27;6.70;;;3.53;;
17604;SDS011;8921;50.964;6.800;2023-03-11T07:21:55;11.23;;;4.00;;
17604;SDS011;8921;50.964;6.800;2023-03-11T07:24:24;10.90;;;4.93;;
17604;SDS011;8921;50.964;6.800;2023-03-11T07:26:52;14.87;;;5.27;;
17604;SDS011;8921;50.964;6.800;2023-03-11T07:29:20;10.57;;;3.77;;
17604;SDS011;8921;50.964;6.800;2023-03-11T07:31:49;8.67;;;3.63;;
17604;SDS011;8921;50.964;6.800;2023-03-11T07:34:17;5.93;;;3.90;;
17604;SDS011;8921;50.964;6.800;2023-03-11T07:36:45;8.23;;;3.30;;
17604;SDS011;8921;50.964;6.800;2023-03-11T07:39:14;7.47;;;3.37;;
17604;SDS011;8921;50.964;6.800;2023-03-11T07:41:42;10.57;;;3.50;;
17604;SDS011;8921;50.964;6.800;2023-03-11T07:44:10;9.87;;;4.77;;
17604;SDS011;8921;50.964;6.800;2023-03-11T07:46:38;11.30;;;3.60;;
17604;SDS011;8921;50.964;6.800;2023-03-11T07:49:06;9.70;;;5.43;;
17604;SDS011;8921;50.964;6.800;2023-03-11T07:51:35;10.23;;;4.53;;
17604;SDS011;8921;50.964;6.800;2023-03-11T07:54:03;10.13;;;3.83;;
17604;SDS011;8921;50.964;6.800;2023-03-11T07:56:32;7.50;;;4.47;;
17604;SDS011;8921;50.964;6.800;2023-03-11T07:59:00;16.73;;;5.30;;
17604;SDS011;8921;50.964;6.800;2023-03-11T08:01:28;13.47;;;4.57;;
17604;SDS011;8921;50.964;6.800;2023-03-11T08:03:56;14.30;;;4.00;;
17604;SDS011;8921;50.964;6.800;2023-03-11T08:06:26;10.97;;;5.33;;
17604;SDS011;8921;50.964;6.800;2023-03-11T08:08:52;9.60;;;3.97;;
17604;SDS011;8921;50.964;6.800;2023-03-11T08:11:21;9.60;;;4.20;;
17604;SDS011;8921;50.964;6.800;2023-03-11T08:13:49;13.03;;;4.47;;
17604;SDS011;8921;50.964;6.800;2023-03-11T08:16:18;8.87;;;3.90;;
17604;SDS011;8921;50.964;6.800;2023-03-11T08:18:46;7.87;;;3.57;;
17604;SDS011;8921;50.964;6.800;2023-03-11T08:21:15;5.60;;;3.23;;
17604;SDS011;8921;50.964;6.800;2023-03-11T08:23:42;11.70;;;4.00;;
17604;SDS011;8921;50.964;6.800;2023-03-11T08:26:14;16.00;;;3.37;;
17604;SDS011;8921;50.964;6.800;2023-03-11T08:28:44;13.83;;;3.70;;
17604;SDS011;8921;50.964;6.800;2023-03-11T08:31:13;5.33;;;3.10;;
17604;SDS011;8921;50.964;6.800;2023-03-11T08:33:41;8.20;;;3.63;;
17604;SDS011;8921;50.964;6.800;2023-03-11T08:36:09;13.17;;;3.70;;
17604;SDS011;8921;50.964;6.800;2023-03-11T08:38:37;10.67;;;3.43;;
17604;SDS011;8921;50.964;6.800;2023-03-11T08:41:05;8.73;;;3.10;;
17604;SDS011;8921;50.964;6.800;2023-03-11T08:43:34;8.97;;;3.57;;
17604;SDS011;8921;50.964;6.800;2023-03-11T08:46:03;10.07;;;3.33;;
17604;SDS011;8921;50.964;6.800;2023-03-11T08:48:30;14.63;;;4.80;;
17604;SDS011;8921;50.964;6.800;2023-03-11T08:50:59;7.00;;;3.53;;
17604;SDS011;8921;50.964;6.800;2023-03-11T08:53:27;10.07;;;3.67;;
17604;SDS011;8921;50.964;6.800;2023-03-11T08:55:55;8.87;;;3.97;;
17604;SDS011;8921;50.964;6.800;2023-03-11T08:58:23;11.60;;;3.57;;
17604;SDS011;8921;50.964;6.800;2023-03-11T09:00:52;7.80;;;3.40;;
17604;SDS011;8921;50.964;6.800;2023-03-11T09:03:20;7.10;;;3.03;;
17604;SDS011;8921;50.964;6.800;2023-03-11T09:05:48;6.87;;;1.83;;
17604;SDS011;8921;50.964;6.800;2023-03-11T09:08:16;8.40;;;2.60;;
17604;SDS011;8921;50.964;6.800;2023-03-11T09:10:45;5.23;;;1.97;;
17604;SDS011;8921;50.964;6.800;2023-03-11T09:13:13;5.70;;;2.00;;
17604;SDS011;8921;50.964;6.800;2023-03-11T09:15:41;4.43;;;1.83;;
17604;SDS011;8921;50.964;6.800;2023-03-11T09:18:12;6.43;;;2.13;;
17604;SDS011;8921;50.964;6.800;2023-03-11T09:20:40;7.43;;;2.40;;
17604;SDS011;8921;50.964;6.800;2023-03-11T09:23:10;7.00;;;1.60;;
17604;SDS011;8921;50.964;6.800;2023-03-11T09:25:37;5.13;;;1.70;;
17604;SDS011;8921;50.964;6.800;2023-03-11T09:28:05;10.00;;;2.23;;
17604;SDS011;8921;50.964;6.800;2023-03-11T09:30:33;12.33;;;2.53;;
17604;SDS011;8921;50.964;6.800;2023-03-11T09:33:02;5.30;;;2.00;;
17604;SDS011;8921;50.964;6.800;2023-03-11T09:35:30;7.17;;;2.47;;
17604;SDS011;8921;50.964;6.800;2023-03-11T09:37:58;6.73;;;1.83;;
17604;SDS011;8921;50.964;6.800;2023-03-11T09:40:27;8.57;;;2.73;;
17604;SDS011;8921;50.964;6.800;2023-03-11T09:45:29;5.23;;;2.17;;
17604;SDS011;8921;50.964;6.800;2023-03-11T09:50:39;9.23;;;2.70;;
17604;SDS011;8921;50.964;6.800;2023-03-11T09:55:55;5.80;;;2.07;;
17604;SDS011;8921;50.964;6.800;2023-03-11T10:01:07;4.97;;;1.40;;
17604;SDS011;8921;50.964;6.800;2023-03-11T10:03:34;5.17;;;1.30;;
17604;SDS011;8921;50.964;6.800;2023-03-11T10:06:24;5.43;;;1.40;;
17604;SDS011;8921;50.964;6.800;2023-03-11T10:08:44;5.13;;;2.60;;
17604;SDS011;8921;50.964;6.800;2023-03-11T10:19:45;7.50;;;1.50;;
17604;SDS011;8921;50.964;6.800;2023-03-11T10:22:24;5.00;;;1.50;;
17604;SDS011;8921;50.964;6.800;2023-03-11T10:27:21;8.50;;;1.57;;
17604;SDS011;8921;50.964;6.800;2023-03-11T10:30:02;5.30;;;1.60;;
17604;SDS011;8921;50.964;6.800;2023-03-11T10:32:40;4.10;;;1.67;;
17604;SDS011;8921;50.964;6.800;2023-03-11T10:35:17;10.13;;;2.03;;
17604;SDS011;8921;50.964;6.800;2023-03-11T10:37:55;5.30;;;1.40;;
17604;SDS011;8921;50.964;6.800;2023-03-11T10:40:28;3.10;;;1.10;;
17604;SDS011;8921;50.964;6.800;2023-03-11T10:42:53;6.83;;;2.23;;
17604;SDS011;8921;50.964;6.800;2023-03-11T10:45:21;4.90;;;1.47;;
17604;SDS011;8921;50.964;6.800;2023-03-11T10:47:49;3.50;;;1.20;;
17604;SDS011;8921;50.964;6.800;2023-03-11T10:50:18;4.70;;;1.77;;
17604;SDS011;8921;50.964;6.800;2023-03-11T10:53:08;4.43;;;1.30;;
17604;SDS011;8921;50.964;6.800;2023-03-11T10:55:33;5.13;;;2.37;;
17604;SDS011;8921;50.964;6.800;2023-03-11T10:58:05;3.93;;;1.27;;
17604;SDS011;8921;50.964;6.800;2023-03-11T11:00:35;9.23;;;2.20;;
17604;SDS011;8921;50.964;6.800;2023-03-11T11:03:03;9.20;;;1.50;;
17604;SDS011;8921;50.964;6.800;2023-03-11T11:05:32;6.10;;;1.67;;
17604;SDS011;8921;50.964;6.800;2023-03-11T11:08:04;6.70;;;2.67;;
17604;SDS011;8921;50.964;6.800;2023-03-11T11:10:34;3.57;;;1.47;;
17604;SDS011;8921;50.964;6.800;2023-03-11T11:15:40;7.90;;;1.73;;
17604;SDS011;8921;50.964;6.800;2023-03-11T11:18:15;5.90;;;1.60;;
17604;SDS011;8921;50.964;6.800;2023-03-11T11:23:36;4.50;;;1.73;;
17604;SDS011;8921;50.964;6.800;2023-03-11T11:26:04;4.13;;;1.60;;
17604;SDS011;8921;50.964;6.800;2023-03-11T11:28:31;5.87;;;2.00;;
17604;SDS011;8921;50.964;6.800;2023-03-11T11:31:00;4.07;;;1.70;;
17604;SDS011;8921;50.964;6.800;2023-03-11T11:36:11;5.30;;;1.60;;
17604;SDS011;8921;50.964;6.800;2023-03-11T11:38:36;7.30;;;1.50;;
17604;SDS011;8921;50.964;6.800;2023-03-11T11:41:04;8.00;;;1.70;;
17604;SDS011;8921;50.964;6.800;2023-03-11T11:43:35;3.57;;;1.27;;
17604;SDS011;8921;50.964;6.800;2023-03-11T11:46:02;5.50;;;1.70;;
17604;SDS011;8921;50.964;6.800;2023-03-11T11:48:34;7.03;;;1.73;;
17604;SDS011;8921;50.964;6.800;2023-03-11T11:51:01;5.10;;;1.47;;
17604;SDS011;8921;50.964;6.800;2023-03-11T11:53:34;3.60;;;1.30;;
17604;SDS011;8921;50.964;6.800;2023-03-11T11:56:05;5.93;;;2.27;;
17604;SDS011;8921;50.964;6.800;2023-03-11T11:58:34;4.90;;;1.90;;
17604;SDS011;8921;50.964;6.800;2023-03-11T12:04:01;4.30;;;1.70;;
17604;SDS011;8921;50.964;6.800;2023-03-11T12:09:45;4.53;;;1.40;;
17604;SDS011;8921;50.964;6.800;2023-03-11T12:12:31;5.57;;;1.60;;
17604;SDS011;8921;50.964;6.800;2023-03-11T12:17:43;3.97;;;1.20;;
17604;SDS011;8921;50.964;6.800;2023-03-11T12:20:20;4.60;;;1.53;;
17604;SDS011;8921;50.964;6.800;2023-03-11T12:25:34;5.87;;;1.53;;
17604;SDS011;8921;50.964;6.800;2023-03-11T12:28:20;3.60;;;1.90;;
17604;SDS011;8921;50.964;6.800;2023-03-11T12:31:09;6.57;;;2.10;;
17604;SDS011;8921;50.964;6.800;2023-03-11T12:33:42;4.60;;;1.50;;
17604;SDS011;8921;50.964;6.800;2023-03-11T12:36:20;6.90;;;1.70;;
17604;SDS011;8921;50.964;6.800;2023-03-11T12:38:48;5.87;;;1.43;;
17604;SDS011;8921;50.964;6.800;2023-03-11T12:41:35;7.17;;;1.87;;
17604;SDS011;8921;50.964;6.800;2023-03-11T12:44:00;7.43;;;1.63;;
17604;SDS011;8921;50.964;6.800;2023-03-11T12:52:01;6.77;;;1.70;;
17604;SDS011;8921;50.964;6.800;2023-03-11T12:54:41;5.27;;;1.60;;
17604;SDS011;8921;50.964;6.800;2023-03-11T12:57:25;9.00;;;1.63;;
17604;SDS011;8921;50.964;6.800;2023-03-11T13:02:50;7.00;;;2.00;;
17604;SDS011;8921;50.964;6.800;2023-03-11T13:08:04;8.07;;;2.27;;
17604;SDS011;8921;50.964;6.800;2023-03-11T13:10:40;5.83;;;2.37;;
17604;SDS011;8921;50.964;6.800;2023-03-11T13:16:34;8.80;;;2.00;;
17604;SDS011;8921;50.964;6.800;2023-03-11T13:18:28;5.83;;;1.83;;
17604;SDS011;8921;50.964;6.800;2023-03-11T13:20:55;5.40;;;2.10;;
17604;SDS011;8921;50.964;6.800;2023-03-11T13:23:24;9.63;;;3.23;;
17604;SDS011;8921;50.964;6.800;2023-03-11T13:34:33;5.77;;;2.23;;
17604;SDS011;8921;50.964;6.800;2023-03-11T13:39:51;6.77;;;2.63;;
17604;SDS011;8921;50.964;6.800;2023-03-11T13:44:54;10.63;;;2.57;;
17604;SDS011;8921;50.964;6.800;2023-03-11T13:47:22;12.47;;;2.40;;
17604;SDS011;8921;50.964;6.800;2023-03-11T13:53:05;5.60;;;2.40;;
17604;SDS011;8921;50.964;6.800;2023-03-11T13:54:47;5.90;;;2.67;;
17604;SDS011;8921;50.964;6.800;2023-03-11T13:57:19;9.63;;;2.43;;
17604;SDS011;8921;50.964;6.800;2023-03-11T13:59:49;8.10;;;2.50;;
17604;SDS011;8921;50.964;6.800;2023-03-11T14:02:18;5.30;;;2.30;;
17604;SDS011;8921;50.964;6.800;2023-03-11T14:04:46;6.23;;;2.20;;
17604;SDS011;8921;50.964;6.800;2023-03-11T14:09:48;9.00;;;2.30;;
17604;SDS011;8921;50.964;6.800;2023-03-11T14:12:16;13.33;;;2.00;;
17604;SDS011;8921;50.964;6.800;2023-03-11T14:14:52;8.57;;;2.23;;
17604;SDS011;8921;50.964;6.800;2023-03-11T14:17:19;11.37;;;2.60;;
17604;SDS011;8921;50.964;6.800;2023-03-11T14:22:37;8.80;;;2.60;;
17604;SDS011;8921;50.964;6.800;2023-03-11T14:25:06;6.93;;;1.90;;
17604;SDS011;8921;50.964;6.800;2023-03-11T14:27:33;9.50;;;2.40;;
17604;SDS011;8921;50.964;6.800;2023-03-11T14:30:01;6.50;;;2.10;;
17604;SDS011;8921;50.964;6.800;2023-03-11T14:32:30;8.50;;;3.70;;
17604;SDS011;8921;50.964;6.800;2023-03-11T14:34:58;5.63;;;1.80;;
17604;SDS011;8921;50.964;6.800;2023-03-11T14:37:33;5.43;;;1.90;;
17604;SDS011;8921;50.964;6.800;2023-03-11T14:40:01;10.83;;;2.63;;
17604;SDS011;8921;50.964;6.800;2023-03-11T14:42:38;9.23;;;2.50;;
17604;SDS011;8921;50.964;6.800;2023-03-11T14:50:05;5.33;;;1.50;;
17604;SDS011;8921;50.964;6.800;2023-03-11T14:52:39;9.20;;;2.30;;
17604;SDS011;8921;50.964;6.800;2023-03-11T14:55:05;5.07;;;2.07;;
17604;SDS011;8921;50.964;6.800;2023-03-11T14:57:38;7.93;;;2.20;;
17604;SDS011;8921;50.964;6.800;2023-03-11T15:00:05;5.23;;;2.10;;
17604;SDS011;8921;50.964;6.800;2023-03-11T15:05:14;8.87;;;1.90;;
17604;SDS011;8921;50.964;6.800;2023-03-11T15:07:39;10.53;;;2.30;;
17604;SDS011;8921;50.964;6.800;2023-03-11T15:10:08;6.13;;;1.83;;
17604;SDS011;8921;50.964;6.800;2023-03-11T15:12:42;6.70;;;2.07;;
17604;SDS011;8921;50.964;6.800;2023-03-11T15:17:56;6.60;;;2.40;;
17604;SDS011;8921;50.964;6.800;2023-03-11T15:22:56;4.03;;;1.63;;
17604;SDS011;8921;50.964;6.800;2023-03-11T15:25:23;4.80;;;2.60;;
17604;SDS011;8921;50.964;6.800;2023-03-11T15:27:51;9.83;;;2.30;;
17604;SDS011;8921;50.964;6.800;2023-03-11T15:30:23;4.33;;;1.87;;
17604;SDS011;8921;50.964;6.800;2023-03-11T15:32:48;9.80;;;2.27;;
17604;SDS011;8921;50.964;6.800;2023-03-11T15:37:48;10.90;;;2.07;;
17604;SDS011;8921;50.964;6.800;2023-03-11T15:43:09;6.77;;;2.13;;
17604;SDS011;8921;50.964;6.800;2023-03-11T15:45:30;4.60;;;1.67;;
17604;SDS011;8921;50.964;6.800;2023-03-11T15:47:58;7.93;;;2.30;;
17604;SDS011;8921;50.964;6.800;2023-03-11T15:50:27;7.93;;;1.97;;
17604;SDS011;8921;50.964;6.800;2023-03-11T15:52:55;14.13;;;2.23;;
17604;SDS011;8921;50.964;6.800;2023-03-11T15:55:24;4.87;;;1.80;;
17604;SDS011;8921;50.964;6.800;2023-03-11T15:57:54;6.47;;;2.60;;
17604;SDS011;8921;50.964;6.800;2023-03-11T16:00:21;7.43;;;1.87;;
17604;SDS011;8921;50.964;6.800;2023-03-11T16:02:48;5.93;;;2.27;;
17604;SDS011;8921;50.964;6.800;2023-03-11T16:05:18;4.90;;;2.00;;
17604;SDS011;8921;50.964;6.800;2023-03-11T16:07:45;4.40;;;2.20;;
17604;SDS011;8921;50.964;6.800;2023-03-11T16:10:14;4.80;;;2.37;;
17604;SDS011;8921;50.964;6.800;2023-03-11T16:12:41;5.40;;;1.80;;
17604;SDS011;8921;50.964;6.800;2023-03-11T16:15:20;5.87;;;2.07;;
17604;SDS011;8921;50.964;6.800;2023-03-11T16:17:52;6.30;;;2.07;;
17604;SDS011;8921;50.964;6.800;2023-03-11T16:20:19;9.30;;;2.83;;
17604;SDS011;8921;50.964;6.800;2023-03-11T16:22:47;5.67;;;2.20;;
17604;SDS011;8921;50.964;6.800;2023-03-11T16:25:19;6.17;;;2.20;;
17604;SDS011;8921;50.964;6.800;2023-03-11T16:27:52;5.00;;;2.37;;
17604;SDS011;8921;50.964;6.800;2023-03-11T16:30:21;9.10;;;2.47;;
17604;SDS011;8921;50.964;6.800;2023-03-11T16:32:49;14.90;;;2.90;;
17604;SDS011;8921;50.964;6.800;2023-03-11T16:35:17;4.60;;;2.20;;
17604;SDS011;8921;50.964;6.800;2023-03-11T16:37:45;7.23;;;2.07;;
17604;SDS011;8921;50.964;6.800;2023-03-11T16:40:15;5.73;;;2.17;;
17604;SDS011;8921;50.964;6.800;2023-03-11T16:42:45;6.47;;;2.80;;
17604;SDS011;8921;50.964;6.800;2023-03-11T16:45:14;12.07;;;2.40;;
17604;SDS011;8921;50.964;6.800;2023-03-11T16:47:41;7.90;;;2.10;;
17604;SDS011;8921;50.964;6.800;2023-03-11T16:50:10;4.50;;;2.77;;
17604;SDS011;8921;50.964;6.800;2023-03-11T16:52:38;9.50;;;2.60;;
17604;SDS011;8921;50.964;6.800;2023-03-11T16:55:06;9.40;;;2.60;;